Weather at Eulogio Sánchez Airport

Public forecast

Using degrees Celsius for public forecast. Weather courtesy of forecast.io.

Current aviation weather report (METAR) for Eulogio Sánchez Airport

Retrieved 2021/09/23 14:00 UTC (42 minutes ago):

SCTB 231400Z 00000KT CAVOK 15/05 Q1019

Closest aviation forecast (TAF) to Eulogio Sánchez Airport

Closest forecast is Comodoro Arturo Merino Benítez International Airport, 12.6 nm (23.3 km) WNW. Retrieved 2021/09/23 12:00 UTC (3 hours ago):

TAF SCEL 231000Z 2312/2412 15004KT 7000 NSC TX27/2318Z TN07/2410Z BECMG 2316/2318 19010KT CAVOK BECMG 2401/2403 14004KT BECMG 2407/2409 7000 NSC